Time;durP1;ratioP1;P1;durP2;ratioP2;P2;SDS_P1;SDS_P2;PMS_P1;PMS_P2;Temp;Humidity;BMP_temperature;BMP_pressure;BME280_temperature;BME280_humidity;BME280_pressure;Samples;Min_cycle;Max_cycle;Signal;HPM_P1;HPM_P2
2021/07/30 00:01:52;;;;;;;5.35;3.40;;;20.90;91.50;;;;;;11836279;28;20921;-63
2021/07/30 00:07:40;;;;;;;6.13;3.03;;;20.90;91.80;;;;;;11839164;28;20050;-62
2021/07/30 00:13:27;;;;;;;7.72;3.45;;;20.80;91.90;;;;;;11849235;28;20080;-62
2021/07/30 00:19:14;;;;;;;5.07;3.53;;;20.90;92.00;;;;;;11850371;28;20524;-62
2021/07/30 00:25:17;;;;;;;6.63;3.00;;;20.90;92.20;;;;;;11849107;28;20039;-63
2021/07/30 00:31:04;;;;;;;5.07;3.03;;;20.90;92.00;;;;;;11900857;28;20057;-62
2021/07/30 00:36:51;;;;;;;9.30;3.30;;;20.80;92.10;;;;;;11891938;28;20046;-63
2021/07/30 00:42:50;;;;;;;4.63;3.15;;;20.70;92.30;;;;;;11853571;28;20608;-63
2021/07/30 07:13:12;;;;;;;7.85;4.57;;;19.20;99.90;;;;;;11994469;27;20772;-63
2021/07/30 07:18:59;;;;;;;7.78;3.95;;;19.70;99.90;;;;;;11988288;28;20084;-63
2021/07/30 07:24:46;;;;;;;8.30;3.55;;;20.70;99.90;;;;;;11989744;28;20057;-63
2021/07/30 07:30:34;;;;;;;6.18;3.63;;;21.20;99.90;;;;;;11951288;28;20064;-64
2021/07/30 07:36:23;;;;;;;9.35;3.78;;;21.40;99.90;;;;;;11987172;28;20052;-63
2021/07/30 07:42:10;;;;;;;7.75;3.85;;;21.30;99.90;;;;;;11988751;28;20049;-63
2021/07/30 07:47:58;;;;;;;8.00;3.63;;;21.40;99.90;;;;;;11989628;28;21970;-64
2021/07/30 07:53:45;;;;;;;9.93;3.58;;;21.40;99.90;;;;;;11992535;28;20049;-64
2021/07/30 07:59:34;;;;;;;5.80;3.35;;;21.50;99.90;;;;;;11989463;28;20060;-64
2021/07/30 08:05:22;;;;;;;13.10;4.18;;;21.60;99.90;;;;;;11989132;28;20041;-64
2021/07/30 08:11:09;;;;;;;7.68;3.85;;;21.60;99.90;;;;;;11988558;28;20053;-64
2021/07/30 08:16:56;;;;;;;5.38;3.10;;;21.80;99.90;;;;;;11987684;28;20033;-64
2021/07/30 08:22:47;;;;;;;9.50;3.63;;;22.00;99.90;;;;;;11971291;28;20049;-64
2021/07/30 08:28:33;;;;;;;10.32;3.53;;;22.20;99.90;;;;;;11959380;28;20069;-63
2021/07/30 08:34:21;;;;;;;7.75;3.60;;;22.20;99.90;;;;;;11958564;28;20421;-64
2021/07/30 08:40:11;;;;;;;6.63;3.53;;;22.10;99.90;;;;;;11956756;28;20424;-64
2021/07/30 08:45:58;;;;;;;5.70;2.72;;;22.20;99.90;;;;;;11958311;28;20107;-64
2021/07/30 08:51:47;;;;;;;10.02;3.13;;;22.60;99.90;;;;;;11951572;28;20055;-63
2021/07/30 08:57:35;;;;;;;6.03;3.20;;;22.70;99.90;;;;;;11957811;28;20045;-63
2021/07/30 09:03:22;;;;;;;5.30;3.40;;;22.90;99.90;;;;;;11956279;28;20428;-64
2021/07/30 09:09:09;;;;;;;6.00;3.50;;;22.70;99.90;;;;;;11955106;28;20045;-64
2021/07/30 09:14:57;;;;;;;3.95;2.95;;;23.00;99.90;;;;;;11994508;28;20064;-63
2021/07/30 09:20:44;;;;;;;3.50;2.80;;;23.20;99.90;;;;;;11994570;28;20053;-64
2021/07/30 09:26:38;;;;;;;5.38;2.80;;;23.30;99.90;;;;;;11994471;28;20049;-63
2021/07/30 09:38:34;;;;;;;7.60;2.83;;;22.70;99.90;;;;;;11985275;28;20044;-64
2021/07/30 09:44:20;;;;;;;5.13;3.10;;;22.80;99.90;;;;;;11997704;28;20071;-65
2021/07/30 09:50:10;;;;;;;5.13;2.60;;;22.90;99.90;;;;;;11984908;28;20619;-62
2021/07/30 09:55:57;;;;;;;3.97;2.30;;;23.10;99.90;;;;;;11955765;28;20045;-65
2021/07/30 10:01:45;;;;;;;4.93;1.90;;;23.10;99.90;;;;;;11956764;28;20056;-65
2021/07/30 10:07:36;;;;;;;2.28;2.03;;;23.30;99.90;;;;;;11895465;28;20386;-64
2021/07/30 10:13:35;;;;;;;2.55;2.10;;;23.10;99.90;;;;;;11954449;28;20061;-63
2021/07/30 10:19:22;;;;;;;5.10;2.03;;;23.00;99.90;;;;;;11951665;28;20060;-62
2021/07/30 10:25:16;;;;;;;4.80;2.60;;;22.80;99.90;;;;;;11953500;28;20468;-62
2021/07/30 10:31:06;;;;;;;6.13;2.00;;;22.90;99.90;;;;;;11956464;28;20064;-63
2021/07/30 10:36:52;;;;;;;3.17;2.10;;;23.20;99.90;;;;;;11954088;28;20052;-63
2021/07/30 10:43:03;;;;;;;3.85;2.25;;;23.10;99.90;;;;;;11952797;28;20057;-63
2021/07/30 10:48:53;;;;;;;3.25;2.10;;;22.90;99.90;;;;;;11950474;28;20148;-63
2021/07/30 11:00:54;;;;;;;5.47;1.80;;;23.20;98.30;;;;;;11950289;28;20049;-65
2021/07/30 11:06:53;;;;;;;5.55;1.33;;;23.20;95.90;;;;;;11952567;28;20060;-65
2021/07/30 11:12:40;;;;;;;4.03;1.33;;;23.40;91.60;;;;;;11956833;28;20517;-65
2021/07/30 11:18:30;;;;;;;3.85;1.02;;;23.90;90.10;;;;;;11954412;28;20065;-64
2021/07/30 11:24:18;;;;;;;2.53;1.17;;;24.20;87.50;;;;;;11947941;28;20528;-65
2021/07/30 11:30:06;;;;;;;5.82;1.42;;;24.00;81.30;;;;;;11954051;28;20049;-65
2021/07/30 11:36:09;;;;;;;9.52;2.35;;;23.70;81.80;;;;;;11955272;28;20107;-64
2021/07/30 11:41:56;;;;;;;11.33;1.47;;;23.30;76.90;;;;;;11958687;28;20049;-65
2021/07/30 11:47:43;;;;;;;3.90;0.90;;;23.20;74.20;;;;;;11953347;28;20041;-65
2021/07/30 11:53:31;;;;;;;5.15;1.00;;;23.40;76.20;;;;;;11950562;28;20053;-66
2021/07/30 11:59:18;;;;;;;8.60;1.20;;;23.50;75.90;;;;;;11956195;28;20060;-68
2021/07/30 12:05:06;;;;;;;4.35;0.95;;;23.60;77.20;;;;;;11962187;28;20076;-68
2021/07/30 12:10:55;;;;;;;5.57;1.05;;;23.60;76.30;;;;;;11958185;28;20107;-67
2021/07/30 12:16:43;;;;;;;6.57;0.93;;;23.80;74.60;;;;;;11918059;28;20049;-66
2021/07/30 12:22:41;;;;;;;11.77;1.20;;;24.00;75.00;;;;;;11955037;28;20049;-66
2021/07/30 12:28:39;;;;;;;6.38;1.08;;;24.30;74.40;;;;;;11959438;28;20053;-66
2021/07/30 12:34:29;;;;;;;6.10;1.42;;;24.40;72.80;;;;;;11955139;28;20252;-64
2021/07/30 12:40:20;;;;;;;3.85;1.23;;;24.30;72.30;;;;;;11959250;28;20049;-64
2021/07/30 12:46:09;;;;;;;3.33;1.23;;;24.30;73.60;;;;;;11955805;28;20053;-64
2021/07/30 12:51:56;;;;;;;11.98;1.13;;;24.60;73.30;;;;;;11955998;28;20041;-63
2021/07/30 12:57:55;;;;;;;6.25;1.83;;;24.60;70.30;;;;;;11956734;28;20264;-63
2021/07/30 13:03:45;;;;;;;3.47;0.93;;;24.50;71.40;;;;;;11954960;28;20129;-64
2021/07/30 13:09:32;;;;;;;4.80;1.45;;;24.70;69.60;;;;;;11955311;28;20112;-63
2021/07/30 13:15:19;;;;;;;7.30;1.50;;;24.70;69.20;;;;;;11955662;28;20049;-64
2021/07/30 13:21:07;;;;;;;7.85;1.35;;;24.40;69.80;;;;;;11956990;28;20599;-64
2021/07/30 13:26:54;;;;;;;9.13;1.80;;;24.40;70.80;;;;;;11959870;28;20050;-66
2021/07/30 13:32:41;;;;;;;4.72;1.30;;;24.50;68.40;;;;;;11956167;28;20061;-64
2021/07/30 13:38:29;;;;;;;10.10;1.40;;;24.60;68.20;;;;;;11953207;28;20058;-65
2021/07/30 13:44:16;;;;;;;7.88;1.38;;;24.10;68.90;;;;;;11954976;28;20045;-65
2021/07/30 13:50:03;;;;;;;5.97;1.40;;;24.30;70.00;;;;;;11953227;28;20053;-65
2021/07/30 13:55:51;;;;;;;6.55;1.40;;;24.50;69.20;;;;;;11957792;28;20050;-65
2021/07/30 14:01:38;;;;;;;3.30;1.27;;;24.90;68.10;;;;;;11955141;28;20060;-65
2021/07/30 14:07:25;;;;;;;4.25;1.17;;;25.40;68.70;;;;;;11955216;28;20064;-65
2021/07/30 14:13:14;;;;;;;3.70;1.10;;;25.70;65.40;;;;;;11909032;28;20057;-65
2021/07/30 14:19:01;;;;;;;5.88;0.98;;;25.60;63.80;;;;;;11926835;28;20114;-64
2021/07/30 14:24:48;;;;;;;6.25;1.20;;;25.50;65.50;;;;;;11954249;28;20064;-68
2021/07/30 14:30:36;;;;;;;6.65;1.50;;;25.40;64.80;;;;;;11954353;28;20041;-67
2021/07/30 14:36:23;;;;;;;4.38;1.50;;;25.50;65.80;;;;;;11956189;28;20049;-68
2021/07/30 14:42:10;;;;;;;6.45;1.40;;;25.80;63.10;;;;;;11891701;28;21327;-68
2021/07/30 14:47:58;;;;;;;7.53;1.48;;;25.90;61.20;;;;;;11915560;28;20053;-65
2021/07/30 14:53:45;;;;;;;8.18;1.20;;;25.40;61.50;;;;;;11950445;28;20102;-65
2021/07/30 14:59:32;;;;;;;5.53;1.50;;;25.40;63.60;;;;;;11953719;28;20052;-65
2021/07/30 15:05:20;;;;;;;5.60;1.25;;;25.70;63.40;;;;;;11950920;28;20053;-65
2021/07/30 15:11:09;;;;;;;5.03;1.35;;;25.80;63.60;;;;;;11951941;28;20049;-65
2021/07/30 15:16:56;;;;;;;4.80;1.35;;;26.00;62.60;;;;;;11954192;28;20049;-66
2021/07/30 15:22:44;;;;;;;3.85;1.30;;;25.50;64.00;;;;;;11956367;28;20050;-65
2021/07/30 15:28:31;;;;;;;6.80;1.67;;;25.30;63.50;;;;;;11953574;28;20037;-64
2021/07/30 15:34:18;;;;;;;6.18;1.33;;;25.50;63.70;;;;;;11956304;28;20053;-65
2021/07/30 15:40:08;;;;;;;3.03;1.20;;;25.50;63.70;;;;;;11960042;28;20135;-65
2021/07/30 15:45:55;;;;;;;4.35;1.33;;;25.90;63.30;;;;;;11961385;28;20451;-66
2021/07/30 15:51:42;;;;;;;10.98;1.40;;;25.30;63.90;;;;;;11961024;28;20053;-66
2021/07/30 15:57:30;;;;;;;5.70;1.70;;;24.70;65.50;;;;;;11957772;28;20052;-66
2021/07/30 16:03:17;;;;;;;3.90;1.33;;;24.40;66.40;;;;;;11955184;28;20064;-65
2021/07/30 16:09:04;;;;;;;14.25;1.65;;;25.50;66.20;;;;;;11959136;28;20045;-65
2021/07/30 16:14:52;;;;;;;4.63;1.45;;;28.40;59.80;;;;;;11961265;28;20049;-65
2021/07/30 16:20:40;;;;;;;4.03;1.65;;;27.40;60.50;;;;;;11961527;28;20045;-65
2021/07/30 16:26:28;;;;;;;6.15;1.40;;;26.50;63.10;;;;;;11954903;28;20057;-69
2021/07/30 16:32:17;;;;;;;6.60;1.67;;;25.50;64.70;;;;;;11961438;28;20049;-70
2021/07/30 16:38:03;;;;;;;4.60;1.50;;;25.10;66.20;;;;;;11959755;28;20714;-69
2021/07/30 16:43:50;;;;;;;5.75;1.27;;;24.50;67.90;;;;;;11953870;28;20412;-69
2021/07/30 16:49:39;;;;;;;3.97;1.30;;;24.20;69.40;;;;;;11957446;28;20410;-69
2021/07/30 16:55:26;;;;;;;6.53;1.52;;;23.70;70.00;;;;;;11961769;28;20049;-69
2021/07/30 17:01:13;;;;;;;8.63;1.63;;;23.70;71.10;;;;;;11956630;28;20047;-68
2021/07/30 17:07:02;;;;;;;9.05;1.40;;;23.80;71.00;;;;;;11962986;28;20054;-69
2021/07/30 17:12:49;;;;;;;3.42;1.15;;;23.90;70.90;;;;;;11955090;28;20057;-69
2021/07/30 17:18:36;;;;;;;6.07;1.40;;;23.90;71.20;;;;;;11959543;28;20057;-69
2021/07/30 17:24:24;;;;;;;5.68;1.40;;;25.40;68.70;;;;;;11960439;28;20049;-69
2021/07/30 17:30:12;;;;;;;4.35;1.08;;;29.50;59.00;;;;;;11957052;28;20488;-69
2021/07/30 17:35:59;;;;;;;10.02;1.38;;;31.80;53.90;;;;;;11954515;28;21784;-68
2021/07/30 17:41:48;;;;;;;6.45;1.20;;;32.80;51.20;;;;;;11953516;28;20052;-68
2021/07/30 17:47:35;;;;;;;4.82;1.13;;;33.10;48.90;;;;;;11951856;28;20130;-68
2021/07/30 17:53:22;;;;;;;3.88;1.40;;;30.80;52.50;;;;;;11949654;28;20060;-69
2021/07/30 17:59:10;;;;;;;5.65;1.45;;;31.80;51.10;;;;;;11950194;28;20505;-70
2021/07/30 18:04:58;;;;;;;17.35;1.73;;;32.20;50.50;;;;;;11953060;28;20060;-69
2021/07/30 18:10:44;;;;;;;7.93;1.33;;;32.50;49.10;;;;;;11947749;28;20049;-69
2021/07/30 18:17:15;;;;;;;5.65;2.00;;;33.60;46.50;;;;;;11985049;28;20037;-68
2021/07/30 18:23:03;;;;;;;5.50;1.60;;;32.20;48.00;;;;;;11995957;28;20128;-68
2021/07/30 18:28:50;;;;;;;3.47;0.98;;;31.50;49.20;;;;;;11995760;28;20061;-68
2021/07/30 18:34:37;;;;;;;3.45;1.40;;;29.00;53.50;;;;;;11996696;28;20069;-68
2021/07/30 18:40:34;;;;;;;4.65;1.27;;;27.90;55.70;;;;;;11994332;28;20055;-68
2021/07/30 18:46:21;;;;;;;7.18;1.30;;;26.90;58.20;;;;;;11994800;28;20525;-68
2021/07/30 18:52:08;;;;;;;8.25;1.67;;;28.00;56.80;;;;;;11973517;28;20575;-68
2021/07/30 18:57:57;;;;;;;4.70;1.40;;;28.60;55.50;;;;;;11950820;28;20045;-68
2021/07/30 19:03:46;;;;;;;7.80;1.50;;;27.90;56.40;;;;;;11956071;28;20110;-69
2021/07/30 19:09:33;;;;;;;9.55;1.92;;;26.50;59.10;;;;;;11993958;28;20053;-67
2021/07/30 19:15:24;;;;;;;5.60;1.60;;;25.50;63.00;;;;;;11994734;28;20041;-70
2021/07/30 19:21:11;;;;;;;3.90;1.30;;;25.00;64.00;;;;;;11994204;28;20041;-68
2021/07/30 19:26:57;;;;;;;9.40;1.67;;;24.60;66.10;;;;;;11993741;28;20045;-68
2021/07/30 19:32:46;;;;;;;5.45;1.63;;;24.40;67.70;;;;;;11993958;28;20046;-68
2021/07/30 19:38:33;;;;;;;10.02;1.95;;;24.10;68.20;;;;;;11992873;28;20124;-68
2021/07/30 19:44:20;;;;;;;9.20;1.90;;;24.00;69.20;;;;;;11994055;28;20041;-68
2021/07/30 19:50:10;;;;;;;8.98;2.05;;;23.80;69.90;;;;;;11985444;28;20437;-68
2021/07/30 19:55:56;;;;;;;10.27;1.75;;;23.80;71.30;;;;;;11949389;28;20493;-68
2021/07/30 20:08:26;;;;;;;9.20;1.90;;;23.40;73.80;;;;;;11953473;28;20111;-68
2021/07/30 20:14:13;;;;;;;5.47;1.50;;;23.30;74.90;;;;;;11993268;28;20053;-67
2021/07/30 20:20:00;;;;;;;7.68;1.83;;;23.20;75.90;;;;;;11999868;28;20053;-69
2021/07/30 20:25:48;;;;;;;6.25;1.60;;;23.10;76.80;;;;;;12001939;28;20080;-69
2021/07/30 20:31:35;;;;;;;9.68;1.77;;;23.00;77.60;;;;;;12002835;28;20063;-68
2021/07/30 20:37:22;;;;;;;7.20;1.70;;;22.90;78.00;;;;;;12000764;28;20041;-68
2021/07/30 20:43:10;;;;;;;4.90;1.70;;;22.70;78.40;;;;;;12000925;28;20061;-68
2021/07/30 20:48:57;;;;;;;8.95;2.03;;;22.60;79.40;;;;;;12000094;28;20037;-67
2021/07/30 20:54:44;;;;;;;7.03;2.33;;;22.50;79.80;;;;;;11994963;28;20045;-68
2021/07/30 21:00:32;;;;;;;7.53;2.10;;;22.40;80.30;;;;;;11999611;28;20057;-68
2021/07/30 21:06:19;;;;;;;11.88;2.20;;;22.20;81.30;;;;;;12000095;28;20049;-67
2021/07/30 21:12:07;;;;;;;8.55;2.10;;;22.20;82.20;;;;;;11997570;28;20101;-68
2021/07/30 21:17:55;;;;;;;6.13;1.85;;;22.10;82.70;;;;;;11999723;28;20048;-67
2021/07/30 21:23:42;;;;;;;8.85;1.92;;;21.90;83.40;;;;;;11999428;28;20048;-67
2021/07/30 21:29:29;;;;;;;7.63;1.92;;;21.80;83.80;;;;;;11998030;28;20648;-68
2021/07/30 21:35:17;;;;;;;9.48;4.28;;;21.90;84.20;;;;;;11998198;28;20061;-67
2021/07/30 21:41:04;;;;;;;9.88;2.60;;;21.90;84.50;;;;;;11998559;28;20048;-68
2021/07/30 21:46:51;;;;;;;9.32;2.28;;;21.90;84.70;;;;;;11998281;28;20090;-68
2021/07/30 21:59:21;;;;;;;10.02;2.17;;;22.00;85.30;;;;;;11997157;28;20433;-69
2021/07/30 22:05:08;;;;;;;8.48;2.22;;;22.10;84.80;;;;;;11988075;28;20106;-68
2021/07/30 22:10:55;;;;;;;9.73;2.22;;;22.20;85.00;;;;;;12000503;28;20099;-68
2021/07/30 22:16:44;;;;;;;9.57;2.00;;;22.20;85.30;;;;;;11996816;28;20055;-69
2021/07/30 22:22:30;;;;;;;4.47;1.88;;;22.30;85.50;;;;;;11996483;28;20568;-69
2021/07/30 22:28:17;;;;;;;8.77;2.30;;;22.30;86.50;;;;;;11995239;28;20041;-68
2021/07/30 22:34:06;;;;;;;7.35;2.08;;;22.30;86.60;;;;;;11995553;28;20551;-69
2021/07/30 22:39:54;;;;;;;6.53;2.40;;;22.30;87.50;;;;;;11995082;28;20052;-69
2021/07/30 22:45:42;;;;;;;9.07;2.55;;;22.30;87.80;;;;;;11995365;28;20041;-69
2021/07/30 22:51:30;;;;;;;11.90;2.33;;;22.30;87.50;;;;;;11980029;28;20052;-68
2021/07/30 22:57:17;;;;;;;7.13;2.30;;;22.20;85.90;;;;;;11954179;28;20049;-69
2021/07/30 23:03:04;;;;;;;7.15;1.80;;;22.10;85.50;;;;;;11946582;28;20048;-68
2021/07/30 23:08:52;;;;;;;8.38;2.05;;;22.00;85.70;;;;;;11994938;28;20052;-68
2021/07/30 23:14:39;;;;;;;5.20;1.80;;;22.00;86.10;;;;;;11993408;28;20406;-68
2021/07/30 23:20:26;;;;;;;11.13;2.00;;;21.90;85.70;;;;;;11994824;28;20041;-68
2021/07/30 23:26:16;;;;;;;8.82;2.33;;;21.70;85.60;;;;;;11994369;28;20433;-71
2021/07/30 23:32:04;;;;;;;8.25;1.80;;;21.60;86.00;;;;;;11993612;28;20053;-68
2021/07/30 23:37:51;;;;;;;6.22;1.92;;;21.50;86.60;;;;;;11993370;28;20052;-68
2021/07/30 23:43:42;;;;;;;7.38;2.20;;;21.40;86.80;;;;;;11994963;28;20052;-67
2021/07/30 23:49:29;;;;;;;11.05;2.08;;;21.30;87.30;;;;;;11990773;28;20057;-67
2021/07/30 23:55:16;;;;;;;12.20;2.58;;;21.40;87.40;;;;;;11958490;28;20052;-67
